Amorinopolis, Brazil
Current Conditions -  °F | °C
As of 10:30 PM on Saturday 25 Oct 2014 (Local Time) from SBBW Reporting Station
Thunderstorm Thunderstorm  
Wind Chill: 79°   Ceiling: 10000
Heat Index: 82°   Visibility: 6mi
Dew Point: 72°   Wind: 7mph
Humidity: 78%   Direction: 290°WNW
Pressure: 29.91"   Gusts: NA
Location:  16.62°S, 51.09°W
Report Text: SBBW 260030Z 29006KT 9999 -TSRA SCT020 FEW025CB BKN100 26/22 Q1013
Loading
Personal Weather Stations






























Interactive Weather Map
Tropical Storm Tracking
New forecast layout! Learn more

10-Day Weather Forecast

Advertisements
Track Severe Weather on mobile